^^
Saratoga-Weather Station Historical Data
Daily Summary for April 7, 2021 Units:  English    Metric   Both
Daily Weekly Monthly Yearly Custom
  High: Low: Average:
Temperature: 71.8 °F 60.3 °F 64.8 °F
Dew Point: 61.3 °F 56.5 °F 58.1 °F
Humidity: 92% 64% 79%
Wind Speed: 10.1mph 0mph 1.5mph
Wind Gust: 13mph - -
Wind- - South
Pressure: 29.7 in 29.6 in -
Precipitation: 0 in    
Historical Graphs
 
 
Tabular Data for April 7, 2021
Time Temperature Dew Point Pressure Wind Wind Speed Wind Gust Humidity Rainfall Rate (Hourly) solar
00:04 60.3 °F 57.9 °F 29.7 in Calm     92% 0 in 0 W/m2
00:09 60.4 °F 58.1 °F 29.7 in Calm     92% 0 in 0 W/m2
00:14 60.4 °F 58.1 °F 29.7 in Calm     92% 0 in 0 W/m2
00:19 60.6 °F 57.9 °F 29.7 in Calm   1 mph 91% 0 in 0 W/m2
00:24 60.6 °F 57.9 °F 29.7 in Calm   2 mph 91% 0 in 0 W/m2
00:29 61 °F 57.7 °F 29.7 in ENE 0.9 mph 2 mph 89% 0 in 0 W/m2
00:34 61.3 °F 58.1 °F 29.7 in NNE 2.9 mph 3 mph 89% 0 in 0 W/m2
00:39 61.7 °F 57.7 °F 29.7 in NW 2 mph 4 mph 87% 0 in 0 W/m2
00:44 62.2 °F 57.7 °F 29.7 in West 2 mph 2 mph 85% 0 in 0 W/m2
00:49 62.4 °F 57.9 °F 29.7 in NNE 0.9 mph 4 mph 85% 0 in 0 W/m2
00:54 62.8 °F 57.6 °F 29.7 in NE 2 mph 3 mph 83% 0 in 0 W/m2
01:14 63.3 °F 57.7 °F 29.7 in Calm     82% 0 in 0 W/m2
01:19 63.1 °F 57.6 °F 29.7 in Calm   1 mph 82% 0 in 0 W/m2
01:24 63.1 °F 57.2 °F 29.7 in SSW 2 mph 2 mph 81% 0 in 0 W/m2
01:29 63.1 °F 57.6 °F 29.7 in Calm   3 mph 82% 0 in 0 W/m2
01:50 63 °F 57 °F 29.7 in Calm   2 mph 81% 0 in 0 W/m2
01:55 63 °F 57 °F 29.7 in Calm   4 mph 81% 0 in 0 W/m2
02:00 63 °F 57 °F 29.7 in Calm   3 mph 81% 0 in 0 W/m2
02:05 63 °F 57.4 °F 29.7 in Calm   4 mph 82% 0 in 0 W/m2
02:10 63 °F 57 °F 29.7 in ENE 2.9 mph 3 mph 81% 0 in 0 W/m2
02:15 63 °F 57 °F 29.7 in SW 0.9 mph 4 mph 81% 0 in 0 W/m2
02:20 63 °F 57 °F 29.7 in NW 0.9 mph 4 mph 81% 0 in 0 W/m2
02:25 63 °F 57.4 °F 29.7 in NNE 2 mph 2 mph 82% 0 in 0 W/m2
02:30 63 °F 57 °F 29.7 in East 0.9 mph 3 mph 81% 0 in 0 W/m2
02:35 62.8 °F 57.2 °F 29.7 in Calm     82% 0 in 0 W/m2
02:40 62.4 °F 56.8 °F 29.7 in Calm   1 mph 82% 0 in 0 W/m2
02:56 62.1 °F 56.8 °F 29.7 in Calm   1 mph 83% 0 in 0 W/m2
03:01 62.1 °F 57.2 °F 29.7 in Calm   1 mph 84% 0 in 0 W/m2
03:06 61.9 °F 57 °F 29.7 in Calm   1 mph 84% 0 in 0 W/m2
03:11 61.5 °F 56.7 °F 29.7 in Calm   3 mph 84% 0 in 0 W/m2
03:16 61.5 °F 57 °F 29.7 in Calm     85% 0 in 0 W/m2
03:33 61 °F 56.8 °F 29.7 in Calm     86% 0 in 0 W/m2
03:38 61 °F 56.8 °F 29.7 in South 2 mph 2 mph 86% 0 in 0 W/m2
03:43 61 °F 56.8 °F 29.7 in Calm     86% 0 in 0 W/m2
03:48 61.2 °F 57 °F 29.7 in Calm     86% 0 in 0 W/m2
03:53 61.2 °F 57.2 °F 29.7 in Calm     87% 0 in 0 W/m2
03:58 61 °F 57 °F 29.7 in Calm   2 mph 87% 0 in 0 W/m2
04:03 60.8 °F 57.2 °F 29.7 in North 0.9 mph 1 mph 88% 0 in 0 W/m2
04:08 60.6 °F 57 °F 29.7 in Calm     88% 0 in 0 W/m2
04:13 60.4 °F 56.8 °F 29.7 in Calm   1 mph 88% 0 in 0 W/m2
04:18 60.4 °F 56.8 °F 29.7 in Calm   2 mph 88% 0 in 0 W/m2
04:23 60.4 °F 56.8 °F 29.7 in NNW 0.9 mph 2 mph 88% 0 in 0 W/m2
04:28 60.4 °F 56.8 °F 29.7 in Calm   1 mph 88% 0 in 0 W/m2
04:33 60.4 °F 56.5 °F 29.7 in NW 2.9 mph 3 mph 87% 0 in 0 W/m2
04:38 60.8 °F 56.7 °F 29.7 in NNW 0.9 mph 3 mph 86% 0 in 0 W/m2
04:43 61.2 °F 57 °F 29.7 in Calm   2 mph 86% 0 in 0 W/m2
04:48 61.3 °F 56.8 °F 29.7 in NNW 2 mph 2 mph 85% 0 in 0 W/m2
04:53 61.3 °F 56.8 °F 29.7 in Calm   1 mph 85% 0 in 0 W/m2
04:58 61.3 °F 56.8 °F 29.7 in Calm   1 mph 85% 0 in 0 W/m2
05:03 61.3 °F 56.8 °F 29.7 in Calm   1 mph 85% 0 in 0 W/m2
05:08 61.3 °F 56.8 °F 29.7 in NW 2 mph 3 mph 85% 0 in 0 W/m2
05:13 61.3 °F 56.8 °F 29.7 in Calm     85% 0 in 0 W/m2
05:18 61.3 °F 56.8 °F 29.7 in Calm   3 mph 85% 0 in 0 W/m2
05:23 61.2 °F 56.7 °F 29.7 in Calm     85% 0 in 0 W/m2
05:28 61.2 °F 57 °F 29.7 in Calm     86% 0 in 0 W/m2
05:33 61 °F 56.8 °F 29.7 in Calm     86% 0 in 0 W/m2
05:38 60.6 °F 56.7 °F 29.7 in Calm   1 mph 87% 0 in 0 W/m2
05:43 60.6 °F 56.7 °F 29.7 in Calm   2 mph 87% 0 in 0 W/m2
06:03 60.4 °F 56.5 °F 29.7 in NW 2 mph 3 mph 87% 0 in 0 W/m2
06:08 60.6 °F 56.7 °F 29.7 in NW 0.9 mph 2 mph 87% 0 in 0 W/m2
06:13 60.6 °F 56.5 °F 29.7 in Calm   3 mph 86% 0 in 0 W/m2
06:18 60.8 °F 56.7 °F 29.7 in Calm   2 mph 86% 0 in 0 W/m2
06:23 60.8 °F 56.7 °F 29.7 in NE 2 mph 2 mph 86% 0 in 0 W/m2
06:28 61 °F 56.8 °F 29.7 in Calm   1 mph 86% 0 in 0 W/m2
06:33 60.8 °F 56.7 °F 29.7 in North 0.9 mph 1 mph 86% 0 in 5 W/m2
06:38 60.8 °F 56.7 °F 29.7 in Calm   2 mph 86% 0 in 11 W/m2
06:43 60.8 °F 56.7 °F 29.7 in Calm   1 mph 86% 0 in 14 W/m2
07:03 61 °F 56.8 °F 29.7 in Calm   2 mph 86% 0 in 30 W/m2
07:08 61 °F 56.8 °F 29.7 in North 0.9 mph 1 mph 86% 0 in 35 W/m2
07:13 61 °F 56.5 °F 29.7 in Calm   2 mph 85% 0 in 44 W/m2
07:18 61 °F 56.5 °F 29.7 in Calm     85% 0 in 44 W/m2
07:23 61 °F 56.8 °F 29.7 in Calm   2 mph 86% 0 in 47 W/m2
07:28 61 °F 56.8 °F 29.7 in WNW 0.9 mph 1 mph 86% 0 in 44 W/m2
07:33 61.2 °F 57 °F 29.7 in Calm     86% 0 in 54 W/m2
07:38 61.2 °F 57 °F 29.7 in NNW 2 mph 3 mph 86% 0 in 53 W/m2
07:43 61.2 °F 57 °F 29.7 in NW 2 mph 3 mph 86% 0 in 63 W/m2
07:48 61.2 °F 56.7 °F 29.7 in SW 0.9 mph 1 mph 85% 0 in 90 W/m2
07:53 61.3 °F 56.8 °F 29.7 in Calm   1 mph 85% 0 in 95 W/m2
07:58 61.3 °F 56.8 °F 29.7 in North 2 mph 3 mph 85% 0 in 98 W/m2
08:03 61.5 °F 57 °F 29.7 in Calm   1 mph 85% 0 in 111 W/m2
08:08 61.7 °F 57.2 °F 29.7 in North 0.9 mph 1 mph 85% 0 in 123 W/m2
08:13 61.9 °F 57.4 °F 29.7 in Calm   3 mph 85% 0 in 120 W/m2
08:18 61.9 °F 57 °F 29.7 in West 0.9 mph 2 mph 84% 0 in 127 W/m2
08:23 62.1 °F 57.2 °F 29.7 in NW 0.9 mph 2 mph 84% 0 in 137 W/m2
08:28 62.1 °F 57.2 °F 29.7 in Calm   2 mph 84% 0 in 128 W/m2
08:33 62.2 °F 57 °F 29.7 in Calm   3 mph 83% 0 in 139 W/m2
08:38 62.2 °F 57 °F 29.7 in Calm   2 mph 83% 0 in 146 W/m2
08:43 62.4 °F 57.2 °F 29.7 in Calm   2 mph 83% 0 in 156 W/m2
08:48 62.4 °F 57.2 °F 29.7 in East 0.9 mph 2 mph 83% 0 in 178 W/m2
08:53 62.8 °F 57.6 °F 29.7 in NE 0.9 mph 2 mph 83% 0 in 181 W/m2
08:58 63 °F 57.4 °F 29.7 in Calm   1 mph 82% 0 in 174 W/m2
09:03 63.1 °F 57.6 °F 29.7 in NE 0.9 mph 3 mph 82% 0 in 171 W/m2
09:09 63.3 °F 58.1 °F 29.7 in West 2 mph 3 mph 83% 0 in 185 W/m2
09:14 63.3 °F 57.7 °F 29.7 in NW 0.9 mph 3 mph 82% 0 in 206 W/m2
09:19 63.3 °F 57.7 °F 29.7 in West 2.9 mph 4 mph 82% 0 in 283 W/m2
09:24 63.5 °F 57.9 °F 29.7 in SSW 4 mph 4 mph 82% 0 in 320 W/m2
09:29 63.7 °F 58.1 °F 29.7 in North 0.9 mph 2 mph 82% 0 in 339 W/m2
09:34 63.9 °F 57.9 °F 29.7 in WNW 0.9 mph 4 mph 81% 0 in 334 W/m2
09:39 64 °F 58.1 °F 29.7 in NW 0.9 mph 3 mph 81% 0 in 378 W/m2
09:44 64.4 °F 58.1 °F 29.7 in Calm   4 mph 80% 0 in 313 W/m2
09:49 64.6 °F 58.3 °F 29.7 in Calm   6 mph 80% 0 in 260 W/m2
09:54 64.8 °F 58.5 °F 29.7 in NW 2 mph 3 mph 80% 0 in 250 W/m2
09:59 64.8 °F 58.5 °F 29.7 in WNW 4 mph 8 mph 80% 0 in 262 W/m2
10:04 64.8 °F 58.1 °F 29.7 in WNW 0.9 mph 3 mph 79% 0 in 313 W/m2
10:09 64.9 °F 58.3 °F 29.7 in West 2.9 mph 8 mph 79% 0 in 334 W/m2
10:14 65.1 °F 58.5 °F 29.7 in WNW 4 mph 4 mph 79% 0 in 301 W/m2
10:19 64.9 °F 57.9 °F 29.7 in South 2 mph 7 mph 78% 0 in 260 W/m2
10:24 64.8 °F 57.7 °F 29.7 in Calm   4 mph 78% 0 in 244 W/m2
10:29 64.8 °F 58.1 °F 29.7 in WNW 2 mph 6 mph 79% 0 in 243 W/m2
10:34 64.8 °F 58.1 °F 29.7 in Calm   2 mph 79% 0 in 257 W/m2
10:39 64.8 °F 58.5 °F 29.7 in Calm   2 mph 80% 0 in 269 W/m2
10:44 64.9 °F 58.3 °F 29.7 in SSE 0.9 mph 8 mph 79% 0 in 334 W/m2
10:49 64.9 °F 58.6 °F 29.7 in NNW 0.9 mph 2 mph 80% 0 in 322 W/m2
10:54 65.1 °F 58.8 °F 29.7 in East 0.9 mph 7 mph 80% 0 in 339 W/m2
10:59 65.5 °F 58.8 °F 29.7 in NE 0.9 mph 4 mph 79% 0 in 299 W/m2
11:04 65.7 °F 58.3 °F 29.7 in NE 4 mph 4 mph 77% 0 in 265 W/m2
11:09 65.3 °F 57.9 °F 29.7 in WNW 2.9 mph 6 mph 77% 0 in 322 W/m2
11:14 65.1 °F 57.7 °F 29.7 in ESE 2 mph 4 mph 77% 0 in 341 W/m2
11:19 65.3 °F 58.3 °F 29.7 in Calm   3 mph 78% 0 in 297 W/m2
11:24 65.5 °F 57.7 °F 29.7 in West 2 mph 7 mph 76% 0 in 243 W/m2
11:29 65.5 °F 57.7 °F 29.6 in WNW 2 mph 3 mph 76% 0 in 315 W/m2
11:48 66.2 °F 58.5 °F 29.6 in East 2.9 mph 6 mph 76% 0 in 301 W/m2
11:53 66.2 °F 58.1 °F 29.6 in NW 2 mph 3 mph 75% 0 in 336 W/m2
11:58 66.2 °F 58.5 °F 29.6 in NW 2 mph 4 mph 76% 0 in 364 W/m2
12:03 66.4 °F 58.3 °F 29.6 in NE 0.9 mph 4 mph 75% 0 in 334 W/m2
12:08 66.4 °F 57.9 °F 29.6 in NW 2 mph 6 mph 74% 0 in 381 W/m2
12:13 66.6 °F 58.5 °F 29.6 in WSW 0.9 mph 5 mph 75% 0 in 454 W/m2
12:18 66.7 °F 59 °F 29.6 in WNW 2 mph 4 mph 76% 0 in 417 W/m2
12:23 67.5 °F 59.2 °F 29.6 in NW 6 mph 9 mph 75% 0 in 353 W/m2
12:28 67.3 °F 58.3 °F 29.6 in WNW 0.9 mph 4 mph 73% 0 in 276 W/m2
12:33 67.3 °F 58.3 °F 29.6 in NW 2.9 mph 8 mph 73% 0 in 237 W/m2
12:38 66.9 °F 58.3 °F 29.6 in Calm   3 mph 74% 0 in 248 W/m2
12:43 66.9 °F 58.3 °F 29.6 in WNW 2.9 mph 8 mph 74% 0 in 167 W/m2
12:48 66.9 °F 57.9 °F 29.6 in NNE 0.9 mph 3 mph 73% 0 in 218 W/m2
13:09 66.4 °F 57.9 °F 29.6 in WNW 2.9 mph 3 mph 74% 0 in 274 W/m2
13:14 66.7 °F 58.6 °F 29.6 in North 0.9 mph 2 mph 75% 0 in 241 W/m2
13:19 66.9 °F 58.3 °F 29.6 in ENE 2.9 mph 3 mph 74% 0 in 424 W/m2
13:24 67.3 °F 58.3 °F 29.6 in ESE 0.9 mph 2 mph 73% 0 in 320 W/m2
13:29 67.5 °F 57.7 °F 29.6 in East 4 mph 8 mph 71% 0 in 297 W/m2
13:34 67.3 °F 58.3 °F 29.6 in East 2 mph 3 mph 73% 0 in 207 W/m2
13:39 67.3 °F 57.9 °F 29.6 in NE 2.9 mph 8 mph 72% 0 in 225 W/m2
13:58 66.7 °F 58.1 °F 29.6 in ENE 4 mph 5 mph 74% 0 in 169 W/m2
14:03 66.6 °F 58.1 °F 29.6 in East 2 mph 4 mph 74% 0 in 153 W/m2
14:08 66.6 °F 58.5 °F 29.6 in Calm   3 mph 75% 0 in 299 W/m2
14:13 66.7 °F 58.6 °F 29.6 in East 2 mph 4 mph 75% 0 in 221 W/m2
14:19 66.7 °F 58.6 °F 29.6 in NNW 2 mph 4 mph 75% 0 in 202 W/m2
14:24 66.9 °F 58.3 °F 29.6 in WSW 2 mph 2 mph 74% 0 in 174 W/m2
14:29 66.9 °F 58.3 °F 29.6 in NE 0.9 mph 2 mph 74% 0 in 125 W/m2
14:34 66.7 °F 58.6 °F 29.6 in WSW 0.9 mph 1 mph 75% 0 in 44 W/m2
14:39 66.6 °F 58.1 °F 29.6 in Calm   5 mph 74% 0 in 121 W/m2
14:44 66.4 °F 58.3 °F 29.6 in Calm   3 mph 75% 0 in 207 W/m2
14:49 66 °F 58.6 °F 29.6 in Calm   4 mph 77% 0 in 105 W/m2
14:54 65.8 °F 58.8 °F 29.6 in NE 2.9 mph 5 mph 78% 0 in 239 W/m2
14:59 65.7 °F 59 °F 29.6 in NNW 2 mph 3 mph 79% 0 in 401 W/m2
15:04 65.8 °F 59.5 °F 29.6 in West 0.9 mph 3 mph 80% 0 in 459 W/m2
15:09 66 °F 59 °F 29.6 in ESE 0.9 mph 4 mph 78% 0 in 376 W/m2
15:14 66.6 °F 59.5 °F 29.6 in ESE 4 mph 4 mph 78% 0 in 450 W/m2
15:19 67.3 °F 60.3 °F 29.6 in NE 2 mph 4 mph 78% 0 in 519 W/m2
15:24 68 °F 60.1 °F 29.6 in East 2.9 mph 4 mph 76% 0 in 478 W/m2
15:29 68.5 °F 60.3 °F 29.6 in NNE 0.9 mph 5 mph 75% 0 in 902 W/m2
15:48 69.6 °F 59 °F 29.6 in West 0.9 mph 4 mph 69% 0 in 487 W/m2
15:53 70 °F 59 °F 29.6 in NNW 2 mph 5 mph 68% 0 in 939 W/m2
15:58 70.3 °F 59.7 °F 29.6 in NE 0.9 mph 7 mph 69% 0 in 898 W/m2
16:03 70.5 °F 59.4 °F 29.6 in NNW 0.9 mph 4 mph 68% 0 in 821 W/m2
16:08 70.7 °F 58.8 °F 29.6 in NNE 0.9 mph 5 mph 66% 0 in 807 W/m2
16:13 71.1 °F 59.2 °F 29.6 in NNE 2 mph 6 mph 66% 0 in 795 W/m2
16:18 71.4 °F 59.9 °F 29.6 in NW 0.9 mph 3 mph 67% 0 in 874 W/m2
16:23 71.1 °F 59.2 °F 29.6 in North 2 mph 5 mph 66% 0 in 281 W/m2
16:28 71.1 °F 59.9 °F 29.6 in WSW 2.9 mph 5 mph 68% 0 in 533 W/m2
16:33 71.1 °F 59.2 °F 29.6 in West 2 mph 4 mph 66% 0 in 642 W/m2
16:38 71.8 °F 60.6 °F 29.6 in NNW 2.9 mph 5 mph 68% 0 in 847 W/m2
16:43 71.8 °F 59 °F 29.6 in West 2.9 mph 13 mph 64% 0 in 316 W/m2
16:48 71.2 °F 59.4 °F 29.6 in NE 2.9 mph 5 mph 66% 0 in 362 W/m2
16:53 70.9 °F 59 °F 29.6 in West 4 mph 5 mph 66% 0 in 176 W/m2
16:58 70.3 °F 58.8 °F 29.6 in WSW 4.9 mph 5 mph 67% 0 in 209 W/m2
17:03 69.8 °F 58.8 °F 29.6 in Calm   2 mph 68% 0 in 200 W/m2
17:08 69.6 °F 59 °F 29.6 in Calm   4 mph 69% 0 in 167 W/m2
17:13 69.3 °F 58.6 °F 29.6 in WNW 2.9 mph 4 mph 69% 0 in 185 W/m2
17:18 69.1 °F 58.5 °F 29.6 in ENE 0.9 mph 4 mph 69% 0 in 223 W/m2
17:23 69.1 °F 58.8 °F 29.6 in ENE 2 mph 5 mph 70% 0 in 276 W/m2
17:28 69.3 °F 59.5 °F 29.6 in ENE 2.9 mph 6 mph 71% 0 in 450 W/m2
17:33 69.6 °F 59.7 °F 29.6 in ESE 4 mph 9 mph 71% 0 in 522 W/m2
17:38 70 °F 60.1 °F 29.6 in ENE 2 mph 2 mph 71% 0 in 476 W/m2
17:43 70.2 °F 60.3 °F 29.6 in East 4.9 mph 9 mph 71% 0 in 450 W/m2
17:48 69.6 °F 60.3 °F 29.6 in SE 2.9 mph 8 mph 72% 0 in 485 W/m2
17:53 70 °F 61 °F 29.6 in East 2 mph 6 mph 73% 0 in 613 W/m2
17:58 70.3 °F 60.4 °F 29.6 in East 10.1 mph 11 mph 71% 0 in 524 W/m2
18:03 70 °F 60.6 °F 29.6 in South 0.9 mph 5 mph 72% 0 in 311 W/m2
18:08 70 °F 61.3 °F 29.6 in NE 0.9 mph 4 mph 74% 0 in 338 W/m2
18:13 70 °F 61.3 °F 29.6 in NNE 2 mph 4 mph 74% 0 in 220 W/m2
18:18 69.6 °F 61 °F 29.6 in Calm   4 mph 74% 0 in 192 W/m2
18:23 69.4 °F 60.4 °F 29.6 in ENE 4.9 mph 7 mph 73% 0 in 323 W/m2
18:28 69.3 °F 60.6 °F 29.6 in ENE 2 mph 7 mph 74% 0 in 366 W/m2
18:33 69.3 °F 60.6 °F 29.6 in East 4 mph 6 mph 74% 0 in 478 W/m2
18:38 69.3 °F 61 °F 29.6 in ESE 2 mph 7 mph 75% 0 in 172 W/m2
18:43 68.9 °F 60.6 °F 29.6 in ENE 6.9 mph 7 mph 75% 0 in 139 W/m2
18:48 68.5 °F 60.6 °F 29.6 in NNW 2.9 mph 5 mph 76% 0 in 120 W/m2
18:53 68.4 °F 60.4 °F 29.6 in West 0.9 mph 4 mph 76% 0 in 86 W/m2
18:58 68.2 °F 60.6 °F 29.6 in ENE 2 mph 3 mph 77% 0 in 67 W/m2
19:03 67.8 °F 60.3 °F 29.6 in North 2.9 mph 4 mph 77% 0 in 46 W/m2
19:08 67.6 °F 60.6 °F 29.6 in NNE 2 mph 6 mph 78% 0 in 35 W/m2
19:13 67.3 °F 60.3 °F 29.6 in Calm   4 mph 78% 0 in 46 W/m2
19:18 67.3 °F 60.6 °F 29.6 in ENE 0.9 mph 7 mph 79% 0 in 47 W/m2
19:23 66.9 °F 60.3 °F 29.6 in NW 2 mph 4 mph 79% 0 in 39 W/m2
19:28 66.7 °F 60.1 °F 29.6 in North 2 mph 6 mph 79% 0 in 37 W/m2
19:33 66.7 °F 60.1 °F 29.6 in NNW 2.9 mph 5 mph 79% 0 in 51 W/m2
19:38 67.3 °F 60.3 °F 29.6 in ENE 4 mph 7 mph 78% 0 in 193 W/m2
19:43 67.8 °F 60.3 °F 29.6 in NW 2 mph 3 mph 77% 0 in 137 W/m2
19:48 68.2 °F 60.3 °F 29.6 in Calm   8 mph 76% 0 in 202 W/m2
19:53 68.5 °F 60.3 °F 29.6 in NE 2 mph 4 mph 75% 0 in 142 W/m2
19:58 68.5 °F 60.3 °F 29.6 in NE 4 mph 9 mph 75% 0 in 81 W/m2
20:03 67.8 °F 59.9 °F 29.6 in WNW 4.9 mph 12 mph 76% 0 in 109 W/m2
20:08 67.5 °F 59.5 °F 29.6 in NNW 2.9 mph 6 mph 76% 0 in 54 W/m2
20:13 67.3 °F 59.9 °F 29.6 in West 4 mph 9 mph 77% 0 in 54 W/m2
20:18 67.1 °F 59.7 °F 29.6 in NW 4 mph 7 mph 77% 0 in 54 W/m2
20:23 66.7 °F 59.7 °F 29.6 in North 2 mph 3 mph 78% 0 in 54 W/m2
20:28 66.7 °F 59.7 °F 29.6 in North 2 mph 5 mph 78% 0 in 39 W/m2
20:33 66.6 °F 59.5 °F 29.6 in ENE 4.9 mph 6 mph 78% 0 in 33 W/m2
20:54 66 °F 58.6 °F 29.6 in NE 2.9 mph 7 mph 77% 0 in 19 W/m2
20:59 66 °F 58.6 °F 29.6 in NNE 2.9 mph 3 mph 77% 0 in 11 W/m2
21:04 65.8 °F 57.7 °F 29.6 in NNW 2.9 mph 8 mph 75% 0 in 5 W/m2
21:09 65.8 °F 57.7 °F 29.6 in North 8.1 mph 8 mph 75% 0 in 0 W/m2
21:14 65.8 °F 57.7 °F 29.6 in Calm   2 mph 75% 0 in 0 W/m2
21:19 65.7 °F 57.6 °F 29.6 in ENE 2.9 mph 3 mph 75% 0 in 0 W/m2
21:24 65.5 °F 57.4 °F 29.7 in ENE 4 mph 4 mph 75% 0 in 0 W/m2
21:29 65.1 °F 57.4 °F 29.7 in ENE 2.9 mph 7 mph 76% 0 in 0 W/m2
21:34 64.9 °F 57.6 °F 29.7 in East 2 mph 3 mph 77% 0 in 0 W/m2
21:39 64.8 °F 57.7 °F 29.7 in WNW 2 mph 6 mph 78% 0 in 0 W/m2
21:44 64.6 °F 57.6 °F 29.7 in ESE 2 mph 4 mph 78% 0 in 0 W/m2
22:05 63.1 °F 57.2 °F 29.7 in SW 0.9 mph 2 mph 81% 0 in 0 W/m2
22:10 63.1 °F 57.2 °F 29.7 in Calm   1 mph 81% 0 in 0 W/m2
22:15 63 °F 57 °F 29.7 in East 2.9 mph 3 mph 81% 0 in 0 W/m2
22:20 62.8 °F 57.2 °F 29.7 in WSW 0.9 mph 2 mph 82% 0 in 0 W/m2
22:25 62.6 °F 57 °F 29.7 in NNW 2 mph 3 mph 82% 0 in 0 W/m2
22:30 62.6 °F 57 °F 29.7 in WNW 0.9 mph 3 mph 82% 0 in 0 W/m2
22:35 62.6 °F 57.4 °F 29.7 in West 0.9 mph 4 mph 83% 0 in 0 W/m2
22:55 62.4 °F 57.2 °F 29.7 in SSW 2 mph 7 mph 83% 0 in 0 W/m2
23:00 62.4 °F 57.2 °F 29.7 in Calm   1 mph 83% 0 in 0 W/m2
23:05 62.4 °F 57.6 °F 29.7 in NE 2 mph 7 mph 84% 0 in 0 W/m2
23:10 62.2 °F 57.4 °F 29.7 in NE 0.9 mph 3 mph 84% 0 in 0 W/m2
23:15 62.2 °F 57.4 °F 29.7 in ENE 2 mph 3 mph 84% 0 in 0 W/m2
23:20 62.2 °F 57.4 °F 29.7 in North 0.9 mph 1 mph 84% 0 in 0 W/m2
23:39 62.1 °F 57.6 °F 29.7 in NNW 0.9 mph 4 mph 85% 0 in 0 W/m2
23:44 61.9 °F 57.6 °F 29.7 in Calm   3 mph 86% 0 in 0 W/m2
23:49 61.9 °F 57.6 °F 29.7 in Calm   2 mph 86% 0 in 0 W/m2
23:54 61.7 °F 57.4 °F 29.7 in East 2.9 mph 3 mph 86% 0 in 0 W/m2
23:59 61.5 °F 57.4 °F 29.7 in East 0.9 mph 2 mph 86% 0 in 0 W/m2
Juneau County Weather
Compliments of Weather Underground - 4 mb